sensor_id;sensor_type;location;lat;lon;timestamp;P1;durP1;ratioP1;P2;durP2;ratioP2
33900;SDS011;20193;49.810;6.418;2022-08-01T00:00:03;2.75;;;2.10;;
33900;SDS011;20193;49.810;6.418;2022-08-01T00:02:30;2.13;;;1.92;;
33900;SDS011;20193;49.810;6.418;2022-08-01T00:04:56;3.65;;;2.05;;
33900;SDS011;20193;49.810;6.418;2022-08-01T00:07:22;1.83;;;1.73;;
33900;SDS011;20193;49.810;6.418;2022-08-01T00:09:48;2.30;;;2.10;;
33900;SDS011;20193;49.810;6.418;2022-08-01T00:12:13;1.80;;;1.70;;
33900;SDS011;20193;49.810;6.418;2022-08-01T00:14:39;2.30;;;2.10;;
33900;SDS011;20193;49.810;6.418;2022-08-01T00:17:04;2.65;;;2.10;;
33900;SDS011;20193;49.810;6.418;2022-08-01T00:19:30;2.40;;;2.20;;
33900;SDS011;20193;49.810;6.418;2022-08-01T00:21:56;2.25;;;2.05;;
33900;SDS011;20193;49.810;6.418;2022-08-01T00:24:22;2.17;;;2.03;;
33900;SDS011;20193;49.810;6.418;2022-08-01T00:26:48;2.00;;;1.90;;
33900;SDS011;20193;49.810;6.418;2022-08-01T00:29:13;2.00;;;1.90;;
33900;SDS011;20193;49.810;6.418;2022-08-01T00:31:39;2.00;;;1.90;;
33900;SDS011;20193;49.810;6.418;2022-08-01T00:34:05;2.20;;;2.10;;
33900;SDS011;20193;49.810;6.418;2022-08-01T00:36:30;2.42;;;2.30;;
33900;SDS011;20193;49.810;6.418;2022-08-01T00:38:56;2.47;;;2.38;;
33900;SDS011;20193;49.810;6.418;2022-08-01T00:41:21;2.58;;;2.38;;
33900;SDS011;20193;49.810;6.418;2022-08-01T00:43:47;2.50;;;2.30;;
33900;SDS011;20193;49.810;6.418;2022-08-01T00:46:13;2.53;;;2.28;;
33900;SDS011;20193;49.810;6.418;2022-08-01T00:48:38;2.55;;;2.28;;
33900;SDS011;20193;49.810;6.418;2022-08-01T00:51:05;2.33;;;2.22;;
33900;SDS011;20193;49.810;6.418;2022-08-01T00:53:30;2.10;;;2.00;;
33900;SDS011;20193;49.810;6.418;2022-08-01T00:55:56;2.97;;;2.47;;
33900;SDS011;20193;49.810;6.418;2022-08-01T00:58:22;2.60;;;2.40;;
33900;SDS011;20193;49.810;6.418;2022-08-01T01:00:48;2.50;;;2.35;;
33900;SDS011;20193;49.810;6.418;2022-08-01T01:03:14;3.85;;;2.70;;
33900;SDS011;20193;49.810;6.418;2022-08-01T01:05:43;2.88;;;2.67;;
33900;SDS011;20193;49.810;6.418;2022-08-01T01:08:19;3.65;;;2.50;;
33900;SDS011;20193;49.810;6.418;2022-08-01T01:10:52;2.42;;;2.20;;
33900;SDS011;20193;49.810;6.418;2022-08-01T01:16:00;2.30;;;2.10;;
33900;SDS011;20193;49.810;6.418;2022-08-01T01:18:34;2.20;;;2.10;;
33900;SDS011;20193;49.810;6.418;2022-08-01T01:21:09;2.60;;;2.40;;
33900;SDS011;20193;49.810;6.418;2022-08-01T01:23:50;2.58;;;2.40;;
33900;SDS011;20193;49.810;6.418;2022-08-01T01:26:52;2.33;;;2.22;;
33900;SDS011;20193;49.810;6.418;2022-08-01T01:32:16;2.72;;;2.60;;
33900;SDS011;20193;49.810;6.418;2022-08-01T01:34:43;2.60;;;2.50;;
33900;SDS011;20193;49.810;6.418;2022-08-01T01:37:11;3.78;;;2.55;;
33900;SDS011;20193;49.810;6.418;2022-08-01T01:39:40;2.40;;;2.30;;
33900;SDS011;20193;49.810;6.418;2022-08-01T01:42:07;2.83;;;2.72;;
33900;SDS011;20193;49.810;6.418;2022-08-01T01:44:34;3.22;;;3.03;;
33900;SDS011;20193;49.810;6.418;2022-08-01T01:47:02;2.75;;;2.65;;
33900;SDS011;20193;49.810;6.418;2022-08-01T01:49:29;3.10;;;2.90;;
33900;SDS011;20193;49.810;6.418;2022-08-01T01:51:57;2.90;;;2.80;;
33900;SDS011;20193;49.810;6.418;2022-08-01T01:54:24;2.80;;;2.60;;
33900;SDS011;20193;49.810;6.418;2022-08-01T01:56:55;2.95;;;2.70;;
33900;SDS011;20193;49.810;6.418;2022-08-01T01:59:30;3.42;;;3.13;;
33900;SDS011;20193;49.810;6.418;2022-08-01T02:01:59;2.50;;;2.40;;
33900;SDS011;20193;49.810;6.418;2022-08-01T02:04:28;3.03;;;2.72;;
33900;SDS011;20193;49.810;6.418;2022-08-01T02:06:55;2.95;;;2.83;;
33900;SDS011;20193;49.810;6.418;2022-08-01T02:09:22;3.10;;;2.90;;
33900;SDS011;20193;49.810;6.418;2022-08-01T02:11:51;3.28;;;3.17;;
33900;SDS011;20193;49.810;6.418;2022-08-01T02:14:18;3.13;;;2.90;;
33900;SDS011;20193;49.810;6.418;2022-08-01T02:16:48;3.20;;;3.00;;
33900;SDS011;20193;49.810;6.418;2022-08-01T02:19:18;3.78;;;3.55;;
33900;SDS011;20193;49.810;6.418;2022-08-01T02:30:26;3.55;;;3.35;;
33900;SDS011;20193;49.810;6.418;2022-08-01T02:32:59;3.90;;;3.60;;
33900;SDS011;20193;49.810;6.418;2022-08-01T02:35:35;3.80;;;3.60;;
33900;SDS011;20193;49.810;6.418;2022-08-01T02:38:05;3.80;;;3.60;;
33900;SDS011;20193;49.810;6.418;2022-08-01T02:40:32;3.97;;;3.67;;
33900;SDS011;20193;49.810;6.418;2022-08-01T02:43:02;3.50;;;3.30;;
33900;SDS011;20193;49.810;6.418;2022-08-01T02:45:30;3.78;;;3.58;;
33900;SDS011;20193;49.810;6.418;2022-08-01T02:48:01;4.20;;;4.00;;
33900;SDS011;20193;49.810;6.418;2022-08-01T02:50:34;4.43;;;4.13;;
33900;SDS011;20193;49.810;6.418;2022-08-01T02:53:01;4.07;;;3.85;;
33900;SDS011;20193;49.810;6.418;2022-08-01T02:55:28;3.65;;;3.45;;
33900;SDS011;20193;49.810;6.418;2022-08-01T02:57:57;3.95;;;3.58;;
33900;SDS011;20193;49.810;6.418;2022-08-01T03:00:26;4.90;;;4.45;;
33900;SDS011;20193;49.810;6.418;2022-08-01T03:02:54;4.20;;;3.90;;
33900;SDS011;20193;49.810;6.418;2022-08-01T03:05:22;3.72;;;3.50;;
33900;SDS011;20193;49.810;6.418;2022-08-01T03:07:49;3.33;;;3.13;;
33900;SDS011;20193;49.810;6.418;2022-08-01T03:10:17;3.97;;;3.63;;
33900;SDS011;20193;49.810;6.418;2022-08-01T03:12:44;3.95;;;3.75;;
33900;SDS011;20193;49.810;6.418;2022-08-01T03:15:11;4.43;;;4.13;;
33900;SDS011;20193;49.810;6.418;2022-08-01T03:17:38;4.00;;;3.80;;
33900;SDS011;20193;49.810;6.418;2022-08-01T03:20:07;4.70;;;4.05;;
33900;SDS011;20193;49.810;6.418;2022-08-01T03:22:35;4.40;;;4.03;;
33900;SDS011;20193;49.810;6.418;2022-08-01T03:25:04;4.20;;;3.90;;
33900;SDS011;20193;49.810;6.418;2022-08-01T03:27:31;4.43;;;4.03;;
33900;SDS011;20193;49.810;6.418;2022-08-01T03:29:58;4.38;;;3.97;;
33900;SDS011;20193;49.810;6.418;2022-08-01T03:32:27;4.20;;;3.85;;
33900;SDS011;20193;49.810;6.418;2022-08-01T03:34:54;4.13;;;3.80;;
33900;SDS011;20193;49.810;6.418;2022-08-01T03:37:33;4.30;;;4.10;;
33900;SDS011;20193;49.810;6.418;2022-08-01T03:40:07;3.90;;;3.70;;
33900;SDS011;20193;49.810;6.418;2022-08-01T03:42:41;4.10;;;3.90;;
33900;SDS011;20193;49.810;6.418;2022-08-01T03:45:15;4.63;;;4.20;;
33900;SDS011;20193;49.810;6.418;2022-08-01T03:47:47;4.13;;;3.88;;
33900;SDS011;20193;49.810;6.418;2022-08-01T03:50:17;4.05;;;3.80;;
33900;SDS011;20193;49.810;6.418;2022-08-01T03:52:46;4.15;;;3.95;;
33900;SDS011;20193;49.810;6.418;2022-08-01T03:55:15;3.83;;;3.63;;
33900;SDS011;20193;49.810;6.418;2022-08-01T03:57:43;4.28;;;3.60;;
33900;SDS011;20193;49.810;6.418;2022-08-01T04:00:12;4.07;;;3.88;;
33900;SDS011;20193;49.810;6.418;2022-08-01T04:02:38;4.47;;;4.18;;
33900;SDS011;20193;49.810;6.418;2022-08-01T04:05:07;4.07;;;3.88;;
33900;SDS011;20193;49.810;6.418;2022-08-01T04:07:33;4.13;;;3.65;;
33900;SDS011;20193;49.810;6.418;2022-08-01T04:10:04;4.30;;;4.00;;
33900;SDS011;20193;49.810;6.418;2022-08-01T04:12:30;3.85;;;3.55;;
33900;SDS011;20193;49.810;6.418;2022-08-01T04:14:57;4.60;;;4.30;;
33900;SDS011;20193;49.810;6.418;2022-08-01T04:17:23;4.35;;;4.05;;
33900;SDS011;20193;49.810;6.418;2022-08-01T04:19:49;4.05;;;3.85;;
33900;SDS011;20193;49.810;6.418;2022-08-01T04:22:15;4.13;;;3.92;;
33900;SDS011;20193;49.810;6.418;2022-08-01T04:24:41;4.22;;;4.03;;
33900;SDS011;20193;49.810;6.418;2022-08-01T04:27:11;4.65;;;4.45;;
33900;SDS011;20193;49.810;6.418;2022-08-01T04:29:38;5.60;;;5.20;;
33900;SDS011;20193;49.810;6.418;2022-08-01T04:32:06;4.25;;;4.05;;
33900;SDS011;20193;49.810;6.418;2022-08-01T04:34:35;5.05;;;4.65;;
33900;SDS011;20193;49.810;6.418;2022-08-01T04:37:05;4.72;;;4.30;;
33900;SDS011;20193;49.810;6.418;2022-08-01T04:39:34;4.65;;;4.38;;
33900;SDS011;20193;49.810;6.418;2022-08-01T04:42:02;8.05;;;4.47;;
33900;SDS011;20193;49.810;6.418;2022-08-01T04:44:30;5.45;;;5.05;;
33900;SDS011;20193;49.810;6.418;2022-08-01T04:46:58;6.10;;;5.60;;
33900;SDS011;20193;49.810;6.418;2022-08-01T04:49:24;5.22;;;5.03;;
33900;SDS011;20193;49.810;6.418;2022-08-01T04:51:54;5.35;;;5.03;;
33900;SDS011;20193;49.810;6.418;2022-08-01T04:54:25;5.60;;;5.20;;
33900;SDS011;20193;49.810;6.418;2022-08-01T04:56:53;5.85;;;5.32;;
33900;SDS011;20193;49.810;6.418;2022-08-01T04:59:23;5.30;;;5.00;;
33900;SDS011;20193;49.810;6.418;2022-08-01T05:02:04;5.32;;;4.93;;
33900;SDS011;20193;49.810;6.418;2022-08-01T05:04:30;5.57;;;5.28;;
33900;SDS011;20193;49.810;6.418;2022-08-01T05:06:56;5.43;;;5.13;;
33900;SDS011;20193;49.810;6.418;2022-08-01T05:09:22;5.45;;;5.05;;
33900;SDS011;20193;49.810;6.418;2022-08-01T05:11:47;5.30;;;4.90;;
33900;SDS011;20193;49.810;6.418;2022-08-01T05:14:13;5.40;;;4.90;;
33900;SDS011;20193;49.810;6.418;2022-08-01T05:16:39;4.93;;;4.72;;
33900;SDS011;20193;49.810;6.418;2022-08-01T05:19:04;5.40;;;4.93;;
33900;SDS011;20193;49.810;6.418;2022-08-01T05:21:30;5.13;;;4.82;;
33900;SDS011;20193;49.810;6.418;2022-08-01T05:23:56;5.38;;;5.00;;
33900;SDS011;20193;49.810;6.418;2022-08-01T05:26:22;5.28;;;5.00;;
33900;SDS011;20193;49.810;6.418;2022-08-01T05:28:48;5.15;;;4.75;;
33900;SDS011;20193;49.810;6.418;2022-08-01T05:31:14;4.75;;;4.55;;
33900;SDS011;20193;49.810;6.418;2022-08-01T05:33:39;5.15;;;4.90;;
33900;SDS011;20193;49.810;6.418;2022-08-01T05:36:05;5.18;;;4.88;;
33900;SDS011;20193;49.810;6.418;2022-08-01T05:38:31;7.32;;;5.65;;
33900;SDS011;20193;49.810;6.418;2022-08-01T05:40:56;5.85;;;5.38;;
33900;SDS011;20193;49.810;6.418;2022-08-01T05:43:22;4.78;;;4.50;;
33900;SDS011;20193;49.810;6.418;2022-08-01T05:45:48;4.95;;;4.75;;
33900;SDS011;20193;49.810;6.418;2022-08-01T05:48:13;5.90;;;5.57;;
33900;SDS011;20193;49.810;6.418;2022-08-01T05:50:39;5.20;;;4.90;;
33900;SDS011;20193;49.810;6.418;2022-08-01T05:53:05;5.18;;;4.88;;
33900;SDS011;20193;49.810;6.418;2022-08-01T05:55:30;5.65;;;5.35;;
33900;SDS011;20193;49.810;6.418;2022-08-01T05:57:56;5.53;;;5.20;;
33900;SDS011;20193;49.810;6.418;2022-08-01T06:00:21;5.03;;;4.75;;
33900;SDS011;20193;49.810;6.418;2022-08-01T06:02:47;5.80;;;5.40;;
33900;SDS011;20193;49.810;6.418;2022-08-01T06:05:13;5.50;;;5.25;;
33900;SDS011;20193;49.810;6.418;2022-08-01T06:07:38;5.28;;;5.07;;
33900;SDS011;20193;49.810;6.418;2022-08-01T06:10:05;5.15;;;4.85;;
33900;SDS011;20193;49.810;6.418;2022-08-01T06:12:35;5.38;;;5.15;;
33900;SDS011;20193;49.810;6.418;2022-08-01T06:15:01;5.57;;;5.18;;
33900;SDS011;20193;49.810;6.418;2022-08-01T06:17:28;5.05;;;4.85;;
33900;SDS011;20193;49.810;6.418;2022-08-01T06:19:53;4.95;;;4.65;;
33900;SDS011;20193;49.810;6.418;2022-08-01T06:22:19;4.90;;;4.70;;
33900;SDS011;20193;49.810;6.418;2022-08-01T06:24:44;5.35;;;4.95;;
33900;SDS011;20193;49.810;6.418;2022-08-01T06:27:10;4.82;;;4.53;;
33900;SDS011;20193;49.810;6.418;2022-08-01T06:29:36;4.72;;;4.53;;
33900;SDS011;20193;49.810;6.418;2022-08-01T06:32:01;4.90;;;4.63;;
33900;SDS011;20193;49.810;6.418;2022-08-01T06:34:27;6.22;;;5.53;;
33900;SDS011;20193;49.810;6.418;2022-08-01T06:36:53;5.03;;;4.72;;
33900;SDS011;20193;49.810;6.418;2022-08-01T06:39:21;11.32;;;5.32;;
33900;SDS011;20193;49.810;6.418;2022-08-01T06:41:47;11.65;;;5.25;;
33900;SDS011;20193;49.810;6.418;2022-08-01T06:44:13;7.82;;;4.60;;
33900;SDS011;20193;49.810;6.418;2022-08-01T06:46:39;4.72;;;4.40;;
33900;SDS011;20193;49.810;6.418;2022-08-01T06:49:04;4.70;;;4.38;;
33900;SDS011;20193;49.810;6.418;2022-08-01T06:51:30;6.63;;;5.20;;
33900;SDS011;20193;49.810;6.418;2022-08-01T06:53:56;5.68;;;4.82;;
33900;SDS011;20193;49.810;6.418;2022-08-01T06:56:21;4.38;;;4.10;;
33900;SDS011;20193;49.810;6.418;2022-08-01T06:58:48;9.65;;;6.55;;
33900;SDS011;20193;49.810;6.418;2022-08-01T07:01:14;5.45;;;5.00;;
33900;SDS011;20193;49.810;6.418;2022-08-01T07:03:40;4.68;;;4.45;;
33900;SDS011;20193;49.810;6.418;2022-08-01T07:06:09;5.35;;;4.05;;
33900;SDS011;20193;49.810;6.418;2022-08-01T07:08:35;4.22;;;3.95;;
33900;SDS011;20193;49.810;6.418;2022-08-01T07:11:01;4.97;;;4.57;;
33900;SDS011;20193;49.810;6.418;2022-08-01T07:13:28;4.70;;;4.40;;
33900;SDS011;20193;49.810;6.418;2022-08-01T07:15:55;4.28;;;4.07;;
33900;SDS011;20193;49.810;6.418;2022-08-01T07:18:21;4.63;;;4.32;;
33900;SDS011;20193;49.810;6.418;2022-08-01T07:20:47;4.25;;;4.03;;
33900;SDS011;20193;49.810;6.418;2022-08-01T07:23:13;38.08;;;9.25;;
33900;SDS011;20193;49.810;6.418;2022-08-01T07:25:40;27.83;;;7.25;;
33900;SDS011;20193;49.810;6.418;2022-08-01T07:28:05;4.80;;;4.35;;
33900;SDS011;20193;49.810;6.418;2022-08-01T07:30:31;14.75;;;6.07;;
33900;SDS011;20193;49.810;6.418;2022-08-01T07:32:57;4.93;;;4.50;;
33900;SDS011;20193;49.810;6.418;2022-08-01T07:35:22;5.43;;;4.97;;
33900;SDS011;20193;49.810;6.418;2022-08-01T07:37:48;7.05;;;4.90;;
33900;SDS011;20193;49.810;6.418;2022-08-01T07:40:14;4.85;;;4.35;;
33900;SDS011;20193;49.810;6.418;2022-08-01T07:42:40;4.00;;;3.80;;
33900;SDS011;20193;49.810;6.418;2022-08-01T07:45:08;4.25;;;3.95;;
33900;SDS011;20193;49.810;6.418;2022-08-01T07:47:34;4.47;;;4.10;;
33900;SDS011;20193;49.810;6.418;2022-08-01T07:50:00;4.18;;;3.80;;
33900;SDS011;20193;49.810;6.418;2022-08-01T07:52:27;4.43;;;4.03;;
33900;SDS011;20193;49.810;6.418;2022-08-01T07:54:55;3.80;;;3.60;;
33900;SDS011;20193;49.810;6.418;2022-08-01T07:57:21;3.67;;;3.47;;
33900;SDS011;20193;49.810;6.418;2022-08-01T07:59:48;5.32;;;4.30;;
33900;SDS011;20193;49.810;6.418;2022-08-01T08:02:13;3.60;;;3.40;;
33900;SDS011;20193;49.810;6.418;2022-08-01T08:04:39;3.05;;;2.85;;
33900;SDS011;20193;49.810;6.418;2022-08-01T08:07:05;3.13;;;2.92;;
33900;SDS011;20193;49.810;6.418;2022-08-01T08:09:30;3.72;;;3.00;;
33900;SDS011;20193;49.810;6.418;2022-08-01T08:11:56;4.63;;;2.60;;
33900;SDS011;20193;49.810;6.418;2022-08-01T08:14:22;2.53;;;2.42;;
33900;SDS011;20193;49.810;6.418;2022-08-01T08:16:49;3.25;;;2.58;;
33900;SDS011;20193;49.810;6.418;2022-08-01T08:19:15;2.83;;;2.63;;
33900;SDS011;20193;49.810;6.418;2022-08-01T08:21:41;2.60;;;2.40;;
33900;SDS011;20193;49.810;6.418;2022-08-01T08:24:07;2.60;;;2.42;;
33900;SDS011;20193;49.810;6.418;2022-08-01T08:26:47;2.35;;;2.25;;
33900;SDS011;20193;49.810;6.418;2022-08-01T08:29:14;3.53;;;2.50;;
33900;SDS011;20193;49.810;6.418;2022-08-01T08:31:40;2.40;;;2.30;;
33900;SDS011;20193;49.810;6.418;2022-08-01T08:34:05;2.40;;;2.20;;
33900;SDS011;20193;49.810;6.418;2022-08-01T08:36:33;3.75;;;2.28;;
33900;SDS011;20193;49.810;6.418;2022-08-01T08:38:59;2.97;;;2.35;;
33900;SDS011;20193;49.810;6.418;2022-08-01T08:41:34;3.17;;;2.20;;
33900;SDS011;20193;49.810;6.418;2022-08-01T08:44:03;2.10;;;2.00;;
33900;SDS011;20193;49.810;6.418;2022-08-01T08:46:30;3.03;;;2.20;;
33900;SDS011;20193;49.810;6.418;2022-08-01T08:48:58;2.63;;;2.33;;
33900;SDS011;20193;49.810;6.418;2022-08-01T08:51:26;2.20;;;2.05;;
33900;SDS011;20193;49.810;6.418;2022-08-01T08:53:56;2.55;;;2.35;;
33900;SDS011;20193;49.810;6.418;2022-08-01T08:56:23;3.90;;;2.25;;
33900;SDS011;20193;49.810;6.418;2022-08-01T08:58:50;2.22;;;2.10;;
33900;SDS011;20193;49.810;6.418;2022-08-01T09:01:16;3.72;;;2.05;;
33900;SDS011;20193;49.810;6.418;2022-08-01T09:03:42;2.88;;;2.05;;
33900;SDS011;20193;49.810;6.418;2022-08-01T09:06:08;2.08;;;1.92;;
33900;SDS011;20193;49.810;6.418;2022-08-01T09:08:35;2.47;;;2.10;;
33900;SDS011;20193;49.810;6.418;2022-08-01T09:11:00;2.42;;;2.20;;
33900;SDS011;20193;49.810;6.418;2022-08-01T09:13:26;2.90;;;2.13;;
33900;SDS011;20193;49.810;6.418;2022-08-01T09:15:53;2.45;;;1.85;;
33900;SDS011;20193;49.810;6.418;2022-08-01T09:23:35;2.88;;;2.30;;
33900;SDS011;20193;49.810;6.418;2022-08-01T09:26:07;2.33;;;2.15;;
33900;SDS011;20193;49.810;6.418;2022-08-01T09:28:44;3.70;;;2.55;;
33900;SDS011;20193;49.810;6.418;2022-08-01T09:31:19;2.33;;;2.22;;
33900;SDS011;20193;49.810;6.418;2022-08-01T09:33:48;2.65;;;2.45;;
33900;SDS011;20193;49.810;6.418;2022-08-01T09:36:16;2.45;;;2.25;;
33900;SDS011;20193;49.810;6.418;2022-08-01T09:38:42;2.55;;;2.28;;
33900;SDS011;20193;49.810;6.418;2022-08-01T09:41:08;2.17;;;2.08;;
33900;SDS011;20193;49.810;6.418;2022-08-01T09:43:33;2.65;;;2.30;;
33900;SDS011;20193;49.810;6.418;2022-08-01T09:46:03;2.70;;;2.50;;
33900;SDS011;20193;49.810;6.418;2022-08-01T09:48:33;2.50;;;2.30;;
33900;SDS011;20193;49.810;6.418;2022-08-01T09:50:59;2.90;;;2.45;;
33900;SDS011;20193;49.810;6.418;2022-08-01T09:53:25;2.58;;;2.10;;
33900;SDS011;20193;49.810;6.418;2022-08-01T09:55:51;2.47;;;2.28;;
33900;SDS011;20193;49.810;6.418;2022-08-01T09:58:19;2.22;;;2.10;;
33900;SDS011;20193;49.810;6.418;2022-08-01T10:00:46;3.08;;;2.08;;
33900;SDS011;20193;49.810;6.418;2022-08-01T10:03:25;2.20;;;2.00;;
33900;SDS011;20193;49.810;6.418;2022-08-01T10:05:52;2.35;;;2.25;;
33900;SDS011;20193;49.810;6.418;2022-08-01T10:08:22;2.40;;;2.30;;
33900;SDS011;20193;49.810;6.418;2022-08-01T10:11:08;2.22;;;2.03;;
33900;SDS011;20193;49.810;6.418;2022-08-01T10:13:36;2.38;;;2.17;;
33900;SDS011;20193;49.810;6.418;2022-08-01T10:16:02;2.38;;;2.22;;
33900;SDS011;20193;49.810;6.418;2022-08-01T10:18:31;2.38;;;2.28;;
33900;SDS011;20193;49.810;6.418;2022-08-01T10:21:00;2.28;;;2.17;;
33900;SDS011;20193;49.810;6.418;2022-08-01T10:23:26;2.72;;;2.10;;
33900;SDS011;20193;49.810;6.418;2022-08-01T10:25:55;2.97;;;2.80;;
33900;SDS011;20193;49.810;6.418;2022-08-01T10:28:23;2.17;;;2.05;;
33900;SDS011;20193;49.810;6.418;2022-08-01T10:30:50;2.08;;;1.98;;
33900;SDS011;20193;49.810;6.418;2022-08-01T10:33:17;2.13;;;2.03;;
33900;SDS011;20193;49.810;6.418;2022-08-01T10:35:45;2.40;;;2.17;;
33900;SDS011;20193;49.810;6.418;2022-08-01T10:38:11;2.10;;;2.00;;
33900;SDS011;20193;49.810;6.418;2022-08-01T10:40:37;2.15;;;1.92;;
33900;SDS011;20193;49.810;6.418;2022-08-01T10:43:04;2.72;;;2.53;;
33900;SDS011;20193;49.810;6.418;2022-08-01T10:45:30;2.08;;;1.98;;
33900;SDS011;20193;49.810;6.418;2022-08-01T10:50:27;2.47;;;2.28;;
33900;SDS011;20193;49.810;6.418;2022-08-01T10:53:20;2.58;;;2.30;;
33900;SDS011;20193;49.810;6.418;2022-08-01T10:56:05;2.33;;;2.00;;
33900;SDS011;20193;49.810;6.418;2022-08-01T10:58:37;2.30;;;2.20;;
33900;SDS011;20193;49.810;6.418;2022-08-01T11:04:02;3.33;;;2.55;;
33900;SDS011;20193;49.810;6.418;2022-08-01T11:09:00;2.00;;;1.90;;
33900;SDS011;20193;49.810;6.418;2022-08-01T11:11:29;1.90;;;1.80;;
33900;SDS011;20193;49.810;6.418;2022-08-01T11:14:00;2.13;;;2.03;;
33900;SDS011;20193;49.810;6.418;2022-08-01T11:16:35;3.25;;;2.60;;
33900;SDS011;20193;49.810;6.418;2022-08-01T11:19:02;2.47;;;2.22;;
33900;SDS011;20193;49.810;6.418;2022-08-01T11:32:47;4.32;;;2.90;;
33900;SDS011;20193;49.810;6.418;2022-08-01T11:35:21;2.75;;;2.03;;
33900;SDS011;20193;49.810;6.418;2022-08-01T11:37:52;3.00;;;2.80;;
33900;SDS011;20193;49.810;6.418;2022-08-01T11:40:25;2.75;;;2.10;;
33900;SDS011;20193;49.810;6.418;2022-08-01T11:45:58;2.15;;;2.05;;
33900;SDS011;20193;49.810;6.418;2022-08-01T11:48:23;2.42;;;2.22;;
33900;SDS011;20193;49.810;6.418;2022-08-01T11:50:51;2.25;;;2.10;;
33900;SDS011;20193;49.810;6.418;2022-08-01T11:53:17;2.22;;;2.13;;
33900;SDS011;20193;49.810;6.418;2022-08-01T11:58:26;2.22;;;2.10;;
33900;SDS011;20193;49.810;6.418;2022-08-01T12:00:56;2.55;;;2.30;;
33900;SDS011;20193;49.810;6.418;2022-08-01T12:03:31;2.00;;;1.90;;
33900;SDS011;20193;49.810;6.418;2022-08-01T12:05:58;2.45;;;1.92;;
33900;SDS011;20193;49.810;6.418;2022-08-01T12:08:27;2.08;;;1.90;;
33900;SDS011;20193;49.810;6.418;2022-08-01T12:10:55;3.47;;;2.25;;
33900;SDS011;20193;49.810;6.418;2022-08-01T12:13:21;2.22;;;1.98;;
33900;SDS011;20193;49.810;6.418;2022-08-01T12:15:47;2.40;;;2.20;;
33900;SDS011;20193;49.810;6.418;2022-08-01T12:18:15;2.60;;;2.40;;
33900;SDS011;20193;49.810;6.418;2022-08-01T12:20:42;2.90;;;2.40;;
33900;SDS011;20193;49.810;6.418;2022-08-01T12:23:11;2.85;;;2.33;;
33900;SDS011;20193;49.810;6.418;2022-08-01T12:25:38;2.35;;;2.25;;
33900;SDS011;20193;49.810;6.418;2022-08-01T12:28:05;2.50;;;2.30;;
33900;SDS011;20193;49.810;6.418;2022-08-01T12:30:32;2.10;;;2.00;;
33900;SDS011;20193;49.810;6.418;2022-08-01T12:33:06;2.20;;;2.00;;
33900;SDS011;20193;49.810;6.418;2022-08-01T12:35:34;2.33;;;2.20;;
33900;SDS011;20193;49.810;6.418;2022-08-01T12:38:22;4.60;;;2.50;;
33900;SDS011;20193;49.810;6.418;2022-08-01T12:40:48;3.17;;;2.30;;
33900;SDS011;20193;49.810;6.418;2022-08-01T12:43:17;2.20;;;2.10;;
33900;SDS011;20193;49.810;6.418;2022-08-01T12:45:44;2.17;;;2.08;;
33900;SDS011;20193;49.810;6.418;2022-08-01T12:48:12;2.60;;;2.50;;
33900;SDS011;20193;49.810;6.418;2022-08-01T12:50:41;2.33;;;2.13;;
33900;SDS011;20193;49.810;6.418;2022-08-01T12:53:12;1.92;;;1.83;;
33900;SDS011;20193;49.810;6.418;2022-08-01T12:55:44;2.00;;;1.90;;
33900;SDS011;20193;49.810;6.418;2022-08-01T12:58:20;2.30;;;2.20;;
33900;SDS011;20193;49.810;6.418;2022-08-01T13:00:50;2.23;;;1.86;;
33900;SDS011;20193;49.810;6.418;2022-08-01T13:03:29;2.05;;;1.95;;
33900;SDS011;20193;49.810;6.418;2022-08-01T13:05:55;4.30;;;1.90;;
33900;SDS011;20193;49.810;6.418;2022-08-01T13:08:23;2.28;;;1.90;;
33900;SDS011;20193;49.810;6.418;2022-08-01T13:11:30;2.80;;;2.60;;
33900;SDS011;20193;49.810;6.418;2022-08-01T13:13:51;2.47;;;2.22;;
33900;SDS011;20193;49.810;6.418;2022-08-01T13:16:22;2.17;;;2.00;;
33900;SDS011;20193;49.810;6.418;2022-08-01T13:18:49;2.25;;;2.05;;
33900;SDS011;20193;49.810;6.418;2022-08-01T13:21:23;3.22;;;2.08;;
33900;SDS011;20193;49.810;6.418;2022-08-01T13:29:17;2.15;;;1.95;;
33900;SDS011;20193;49.810;6.418;2022-08-01T13:31:45;2.20;;;2.10;;
33900;SDS011;20193;49.810;6.418;2022-08-01T13:34:12;3.35;;;3.10;;
33900;SDS011;20193;49.810;6.418;2022-08-01T13:36:38;2.00;;;1.90;;
33900;SDS011;20193;49.810;6.418;2022-08-01T13:39:04;3.63;;;2.15;;
33900;SDS011;20193;49.810;6.418;2022-08-01T13:41:49;2.55;;;2.35;;
33900;SDS011;20193;49.810;6.418;2022-08-01T13:44:15;2.08;;;1.90;;
33900;SDS011;20193;49.810;6.418;2022-08-01T13:46:42;2.10;;;2.00;;
33900;SDS011;20193;49.810;6.418;2022-08-01T13:49:09;2.17;;;2.08;;
33900;SDS011;20193;49.810;6.418;2022-08-01T13:51:36;2.08;;;1.98;;
33900;SDS011;20193;49.810;6.418;2022-08-01T13:54:03;2.75;;;2.55;;
33900;SDS011;20193;49.810;6.418;2022-08-01T13:56:29;2.80;;;2.53;;
33900;SDS011;20193;49.810;6.418;2022-08-01T13:58:55;3.13;;;2.00;;
33900;SDS011;20193;49.810;6.418;2022-08-01T14:01:21;3.33;;;1.90;;
33900;SDS011;20193;49.810;6.418;2022-08-01T14:03:47;2.85;;;2.58;;
33900;SDS011;20193;49.810;6.418;2022-08-01T14:06:14;2.40;;;2.30;;
33900;SDS011;20193;49.810;6.418;2022-08-01T14:08:41;2.13;;;2.00;;
33900;SDS011;20193;49.810;6.418;2022-08-01T14:11:08;2.33;;;2.08;;
33900;SDS011;20193;49.810;6.418;2022-08-01T14:13:34;2.85;;;1.90;;
33900;SDS011;20193;49.810;6.418;2022-08-01T14:16:03;8.02;;;2.17;;
33900;SDS011;20193;49.810;6.418;2022-08-01T14:18:30;3.10;;;2.33;;
33900;SDS011;20193;49.810;6.418;2022-08-01T14:20:55;5.25;;;1.85;;
33900;SDS011;20193;49.810;6.418;2022-08-01T14:23:24;1.90;;;1.80;;
33900;SDS011;20193;49.810;6.418;2022-08-01T14:25:50;1.95;;;1.85;;
33900;SDS011;20193;49.810;6.418;2022-08-01T14:28:15;2.05;;;1.85;;
33900;SDS011;20193;49.810;6.418;2022-08-01T14:30:42;2.03;;;1.92;;
33900;SDS011;20193;49.810;6.418;2022-08-01T14:33:08;3.15;;;1.90;;
33900;SDS011;20193;49.810;6.418;2022-08-01T14:35:37;1.88;;;1.77;;
33900;SDS011;20193;49.810;6.418;2022-08-01T14:38:02;2.53;;;1.85;;
33900;SDS011;20193;49.810;6.418;2022-08-01T14:40:28;1.83;;;1.73;;
33900;SDS011;20193;49.810;6.418;2022-08-01T14:42:54;2.17;;;2.05;;
33900;SDS011;20193;49.810;6.418;2022-08-01T14:45:20;2.00;;;1.90;;
33900;SDS011;20193;49.810;6.418;2022-08-01T14:47:45;2.28;;;2.03;;
33900;SDS011;20193;49.810;6.418;2022-08-01T14:50:12;1.90;;;1.80;;
33900;SDS011;20193;49.810;6.418;2022-08-01T14:52:39;2.22;;;1.90;;
33900;SDS011;20193;49.810;6.418;2022-08-01T14:55:06;2.33;;;2.13;;
33900;SDS011;20193;49.810;6.418;2022-08-01T14:57:33;2.00;;;1.90;;
33900;SDS011;20193;49.810;6.418;2022-08-01T14:59:59;2.30;;;2.05;;
33900;SDS011;20193;49.810;6.418;2022-08-01T15:02:25;2.20;;;2.10;;
33900;SDS011;20193;49.810;6.418;2022-08-01T15:04:50;8.77;;;2.30;;
33900;SDS011;20193;49.810;6.418;2022-08-01T15:07:16;3.63;;;1.92;;
33900;SDS011;20193;49.810;6.418;2022-08-01T15:09:43;5.38;;;1.95;;
33900;SDS011;20193;49.810;6.418;2022-08-01T15:12:09;2.28;;;2.08;;
33900;SDS011;20193;49.810;6.418;2022-08-01T15:14:38;1.98;;;1.88;;
33900;SDS011;20193;49.810;6.418;2022-08-01T15:17:23;2.08;;;1.90;;
33900;SDS011;20193;49.810;6.418;2022-08-01T15:19:52;4.25;;;1.85;;
33900;SDS011;20193;49.810;6.418;2022-08-01T15:22:19;2.72;;;1.98;;
33900;SDS011;20193;49.810;6.418;2022-08-01T15:24:49;3.63;;;2.10;;
33900;SDS011;20193;49.810;6.418;2022-08-01T15:27:16;2.28;;;2.10;;
33900;SDS011;20193;49.810;6.418;2022-08-01T15:29:42;2.00;;;1.90;;
33900;SDS011;20193;49.810;6.418;2022-08-01T15:32:08;4.78;;;2.30;;
33900;SDS011;20193;49.810;6.418;2022-08-01T15:34:34;4.63;;;2.00;;
33900;SDS011;20193;49.810;6.418;2022-08-01T15:37:00;2.45;;;1.88;;
33900;SDS011;20193;49.810;6.418;2022-08-01T15:39:27;2.03;;;1.92;;
33900;SDS011;20193;49.810;6.418;2022-08-01T15:41:52;1.90;;;1.80;;